Latest Weather Observations for Nerriga

IDN60801

Issued at 6:33 pm EDT Saturday 20 December 2014 (issued every 30 minutes, with the page automatically refreshed every 10 minutes)

About weather observations | Map of weather stations | Latest weather observations for NSW | Other Formats
Station Details ID: 069128 Name: NERRIGA AWS Lat: -35.11 Lon: 150.08 Height: 622.0 m
Data from the previous 72 hours. | See also: Recent months at Nerriga
Date/Time
EDT
Temp
°C
App
Temp
°C
Dew
Point
Rel
Hum
%
Delta-T
°C
Wind Press
QNH
hPa
Press
MSL
hPa
Rain
since 9 am
mm
Dir
 
Spd
km/h
Gust
km/h
Spd
kts
Gust
kts
20/06:30pm 18.5 14.7 12.5 68 3.4 E 24 32 13 17 1016.7 1014.5 0.0
20/06:00pm 20.6 17.5 13.3 63 4.3 ESE 22 37 12 20 1016.3 1014.1 0.0
20/05:30pm 20.9 17.2 12.8 60 4.7 ENE 24 32 13 17 1015.9 1013.7 0.0
20/05:00pm 21.9 18.7 13.0 57 5.2 E 22 32 12 17 1015.7 1013.5 0.0
20/04:30pm 22.8 20.0 13.3 55 5.6 ENE 20 28 11 15 1015.8 1013.6 0.0
20/04:00pm 23.5 21.6 11.9 48 6.7 ENE 13 17 7 9 1016.0 1013.8 0.0
20/03:30pm 24.2 23.6 10.5 42 7.8 N 4 15 2 8 1016.3 1014.1 0.0
20/03:00pm 23.3 22.4 9.3 41 7.8 ENE 4 9 2 5 1016.6 1014.4 0.0
20/02:30pm 22.4 20.5 8.9 42 7.4 E 9 13 5 7 1016.8 1014.6 0.0
20/02:00pm 22.4 21.5 9.2 43 7.3 NNW 4 9 2 5 1017.2 1015.0 0.0
20/01:30pm 21.3 20.0 9.2 46 6.6 NNW 6 13 3 7 1017.4 1015.2 0.0
20/01:00pm 20.3 19.2 10.7 54 5.4 NNW 7 9 4 5 1017.8 1015.6 0.0
20/12:30pm 20.3 19.2 10.1 52 5.7 NNW 6 19 3 10 1018.2 1016.0 0.0
20/12:00pm 19.5 17.9 10.2 55 5.1 NNW 9 19 5 10 1018.4 1016.3 0.0
20/11:30am 18.2 16.0 9.5 57 4.7 N 11 20 6 11 1018.7 1016.5 0.0
20/11:00am 17.3 15.6 9.7 61 4.1 NNW 9 20 5 11 1018.9 1016.7 0.0
20/10:30am 17.3 15.0 10.4 64 3.8 N 13 20 7 11 1018.8 1016.6 0.0
20/10:00am 15.7 14.0 9.8 68 3.2 N 9 19 5 10 1018.8 1016.6 0.0
20/09:30am 13.8 11.2 9.3 74 2.4 NNW 13 19 7 10 1019.1 1016.9 0.0
20/09:00am 13.9 11.9 10.3 79 1.9 NNW 11 17 6 9 1019.1 1016.9 0.0
20/08:30am 13.2 11.9 9.8 80 1.8 NE 7 9 4 5 1019.1 1016.9 0.0
20/08:00am 12.9 11.7 9.4 79 1.8 ENE 6 11 3 6 1019.0 1016.8 0.0
20/07:30am 13.4 12.2 9.6 78 2.0 E 6 9 3 5 1018.7 1016.5 0.0
20/07:00am 12.1 10.9 9.5 84 1.4 E 6 9 3 5 1018.4 1016.3 0.0
20/06:30am 11.1 9.8 9.9 92 0.6 E 7 9 4 5 1018.3 1016.1 0.0
20/06:00am 10.8 9.7 10.0 95 0.4 E 6 7 3 4 1018.2 1016.0 0.0
20/05:30am 10.5 9.3 9.4 93 0.6 E 6 6 3 3 1018.1 1015.9 0.0
20/05:00am 11.1 10.0 9.9 92 0.6 E 6 9 3 5 1017.9 1015.7 0.0
20/04:30am 11.3 10.1 9.7 90 0.8 E 6 9 3 5 1017.9 1015.7 0.0
20/04:00am 11.4 10.3 9.8 90 0.8 E 6 7 3 4 1017.9 1015.7 0.0
20/03:30am 11.3 9.6 9.9 91 0.7 E 9 11 5 6 1018.0 1015.8 0.0
20/03:00am 11.4 10.0 9.7 89 0.9 E 7 15 4 8 1018.2 1016.0 0.0
20/02:30am 11.3 10.1 9.4 88 1.0 E 6 7 3 4 1018.4 1016.3 0.0
20/02:00am 11.4 9.6 9.5 88 1.0 E 9 13 5 7 1018.7 1016.5 0.0
20/01:30am 11.4 9.2 9.5 88 1.0 E 11 17 6 9 1018.9 1016.7 0.0
20/01:00am 11.7 10.0 9.9 89 0.9 E 9 13 5 7 1019.1 1016.9 0.0
20/12:30am 11.6 10.3 9.9 89 0.9 ESE 7 13 4 7 1019.2 1017.0 0.0
20/12:00am 11.7 10.5 9.4 86 1.2 E 6 9 3 5 1019.4 1017.2 0.0
 
Date/Time
EDT
Temp
°C
App
Temp
°C
Dew
Point
Rel
Hum
%
Delta-T
°C
Wind Press
QNH
hPa
Press
MSL
hPa
Rain
since 9 am
mm
Dir
 
Spd
km/h
Gust
km/h
Spd
kts
Gust
kts
19/11:30pm 11.8 10.6 9.4 85 1.3 E 6 11 3 6 1019.5 1017.3 0.0
19/11:00pm 11.9 9.4 9.6 86 1.2 ESE 13 24 7 13 1019.5 1017.3 0.0
19/10:30pm 12.0 9.5 9.6 85 1.3 ESE 13 20 7 11 1019.5 1017.3 0.0
19/10:00pm 12.1 9.2 9.7 85 1.3 E 15 22 8 12 1019.3 1017.1 0.0
19/09:30pm 12.2 9.6 9.2 82 1.6 E 13 20 7 11 1018.9 1016.7 0.0
19/09:00pm 12.3 8.6 9.3 82 1.6 ESE 19 28 10 15 1018.7 1016.5 0.0
19/08:30pm 12.6 9.6 9.2 80 1.8 E 15 20 8 11 1018.2 1016.0 0.0
19/08:00pm 12.9 10.2 8.8 76 2.1 ESE 13 19 7 10 1017.9 1015.7 0.0
19/07:30pm 13.1 9.0 8.8 75 2.2 ESE 20 30 11 16 1017.3 1015.1 0.0
19/07:00pm 13.6 8.8 8.7 72 2.5 ESE 24 33 13 18 1016.5 1014.3 0.0
19/06:30pm 14.7 10.3 8.9 68 3.0 ESE 22 32 12 17 1015.9 1013.7 0.0
19/06:00pm 14.9 10.8 8.8 67 3.2 ESE 20 28 11 15 1015.1 1012.9 0.0
19/05:30pm 15.5 10.9 8.3 62 3.8 ESE 22 33 12 18 1014.6 1012.4 0.0
19/05:00pm 17.9 13.7 9.8 59 4.4 E 22 35 12 19 1014.1 1011.8 0.0
19/04:30pm 18.0 14.3 9.4 57 4.7 ESE 19 30 10 16 1013.8 1011.5 0.0
19/04:00pm 18.5 13.6 9.8 57 4.8 ESE 26 32 14 17 1013.6 1011.3 0.0
19/03:30pm 18.9 14.8 10.2 57 4.8 ESE 22 39 12 21 1013.6 1011.3 0.0
19/03:00pm 19.1 14.2 10.1 56 5.0 ESE 26 35 14 19 1013.2 1011.0 0.0
19/02:30pm 17.9 12.7 8.7 55 4.9 ESE 26 43 14 23 1013.0 1010.8 0.0
19/02:00pm 18.5 14.5 10.3 59 4.5 E 22 33 12 18 1013.0 1010.8 0.0
19/01:30pm 20.2 17.0 11.4 57 5.0 E 19 28 10 15 1013.0 1010.8 0.0
19/01:00pm 18.1 14.1 9.2 56 4.8 E 20 32 11 17 1013.1 1010.9 0.0
19/12:30pm 19.6 17.7 10.6 56 5.0 ESE 11 24 6 13 1013.3 1011.1 0.0
19/12:00pm 19.3 16.8 9.8 54 5.2 ENE 13 20 7 11 1013.4 1011.2 0.0
19/11:30am 18.3 15.8 9.6 57 4.7 E 13 22 7 12 1013.6 1011.3 0.0
19/11:00am 17.5 14.7 10.1 62 4.0 E 15 22 8 12 1013.6 1011.3 0.0
19/10:30am 17.3 15.6 9.7 61 4.1 E 9 17 5 9 1013.6 1011.3 0.0
19/10:00am 15.6 14.3 9.1 65 3.5 ENE 6 9 3 5 1013.7 1011.4 0.0
19/09:30am 16.4 15.1 9.8 65 3.6 E 7 15 4 8 1013.7 1011.4 0.0
19/09:00am 15.6 13.8 9.5 67 3.3 E 9 13 5 7 1013.7 1011.4 0.0
19/08:30am 14.2 12.8 9.0 71 2.7 E 6 11 3 6 1013.4 1011.2 0.0
19/08:00am 14.5 12.8 9.7 73 2.6 ESE 9 17 5 9 1013.0 1010.8 0.0
19/07:30am 13.8 13.1 10.0 78 2.0 E 4 6 2 3 1012.9 1010.7 0.0
19/07:00am 12.4 11.2 10.3 87 1.1 E 7 9 4 5 1012.5 1010.2 0.0
19/06:30am 10.9 9.7 10.4 97 0.3 E 7 9 4 5 1012.3 1010.0 0.0
19/06:00am 10.1 9.3 9.8 98 0.2 E 4 6 2 3 1011.7 1009.5 0.0
19/05:30am 10.5 9.8 10.0 97 0.3 E 4 6 2 3 1011.5 1009.3 0.0
19/05:00am 10.5 9.7 9.7 95 0.4 E 4 7 2 4 1011.3 1009.0 0.0
19/04:30am 11.2 10.5 10.1 93 0.6 ESE 4 6 2 3 1011.0 1008.7 0.0
19/04:00am 12.0 10.5 10.7 92 0.7 ESE 9 15 5 8 1010.6 1008.3 0.0
19/03:30am 13.1 12.1 12.3 95 0.4 SE 9 15 5 8 1010.3 1008.0 0.0
19/03:00am 13.2 10.8 12.6 96 0.3 SE 17 26 9 14 1009.6 1007.3 0.0
19/02:30am 13.7 10.0 10.3 80 1.8 SE 20 26 11 14 1009.4 1007.1 0.0
19/02:00am 11.7 10.6 5.1 64 3.1 CALM 0 6 0 3 1009.1 1006.8 0.0
19/01:30am 14.8 12.2 3.3 46 5.4 WSW 6 9 3 5 1008.8 1006.5 0.0
19/01:00am 15.7 12.1 2.8 42 6.0 W 11 13 6 7 1008.7 1006.4 0.0
19/12:30am 16.5 12.8 2.5 39 6.5 W 11 13 6 7 1008.6 1006.3 0.0
19/12:00am 13.4 10.9 4.8 56 4.1 W 7 11 4 6 1008.5 1006.1 0.0
 
Date/Time
EDT
Temp
°C
App
Temp
°C
Dew
Point
Rel
Hum
%
Delta-T
°C
Wind Press
QNH
hPa
Press
MSL
hPa
Rain
since 9 am
mm
Dir
 
Spd
km/h
Gust
km/h
Spd
kts
Gust
kts
18/11:30pm 15.3 12.2 3.5 45 5.6 W 9 9 5 5 1008.3 1006.0 0.0
18/11:00pm 18.0 14.6 1.9 34 7.5 W 9 11 5 6 1008.6 1006.3 0.0
18/10:30pm 18.9 15.4 1.4 31 8.2 W 9 11 5 6 1008.5 1006.1 0.0
18/10:00pm 20.1 15.8 1.0 28 8.9 WNW 13 19 7 10 1008.3 1006.0 0.0
18/09:30pm 20.1 16.3 1.5 29 8.8 WNW 11 15 6 8 1008.1 1005.8 0.0
18/09:00pm 20.7 16.9 1.6 28 9.1 WNW 11 15 6 8 1007.8 1005.5 0.0
18/08:30pm 21.3 17.2 2.1 28 9.2 WNW 13 15 7 8 1007.8 1005.5 0.0
18/08:00pm 22.2 17.8 2.8 28 9.5 W 15 19 8 10 1007.6 1005.3 0.0
18/07:30pm 23.9 19.7 3.8 27 10.2 W 15 19 8 10 1007.3 1005.0 0.0
18/07:00pm 24.8 19.8 3.5 25 10.8 W 19 26 10 14 1007.0 1004.6 0.0
18/06:30pm 25.3 19.2 2.7 23 11.3 W 24 35 13 19 1006.6 1004.3 0.0
18/06:00pm 25.6 18.8 2.9 23 11.5 W 28 37 15 20 1006.4 1004.1 0.0
18/05:30pm 26.1 19.5 4.0 24 11.4 W 28 43 15 23 1006.2 1003.9 0.0
18/05:00pm 26.6 19.5 3.8 23 11.8 WNW 30 41 16 22 1006.0 1003.7 0.0
18/04:41pm 26.7 19.7 3.9 23 11.8 W 30 48 16 26 1005.8 1003.5 0.0
18/04:30pm 26.6 19.1 3.2 22 11.9 W 32 46 17 25 1005.7 1003.3 0.0
18/04:04pm 26.8 19.8 4.0 23 11.8 WNW 30 50 16 27 1005.7 1003.3 0.0
18/04:00pm 27.2 21.2 5.5 25 11.6 WNW 26 39 14 21 1005.8 1003.5 0.0
18/03:30pm 26.9 22.0 5.2 25 11.5 WNW 20 39 11 21 1005.9 1003.6 0.0
18/03:00pm 26.5 21.4 7.5 30 10.4 NW 24 35 13 19 1006.2 1003.9 0.0
18/02:30pm 26.4 22.1 6.9 29 10.6 WNW 19 37 10 20 1006.4 1004.1 0.0
18/02:00pm 25.7 19.2 4.8 26 10.9 WNW 28 37 15 20 1006.8 1004.4 0.0
18/01:30pm 25.3 23.1 12.2 44 7.7 NNW 15 20 8 11 1007.1 1004.7 0.0
18/01:00pm 24.4 23.9 13.9 52 6.4 N 9 20 5 11 1007.5 1005.2 0.0
18/12:30pm 22.8 22.1 12.1 51 6.2 NNW 7 17 4 9 1008.0 1005.7 0.0
18/12:00pm 21.8 21.2 12.4 55 5.5 NW 7 15 4 8 1008.5 1006.1 0.0
18/11:30am 21.5 20.6 12.6 57 5.2 NNW 9 20 5 11 1009.0 1006.7 0.0
18/11:00am 20.2 18.0 12.2 60 4.6 N 15 20 8 11 1009.5 1007.2 0.0
18/10:30am 19.3 18.0 13.7 70 3.3 NNW 13 17 7 9 1010.0 1007.8 0.0
18/10:00am 19.3 17.6 13.5 69 3.4 N 15 26 8 14 1010.0 1007.8 0.0
18/09:30am 18.2 16.5 13.7 75 2.6 NNE 15 26 8 14 1010.3 1008.0 0.0
18/09:00am 16.3 14.8 13.2 82 1.8 N 13 20 7 11 1010.6 1008.3 0.0
18/08:30am 15.2 13.3 13.1 87 1.2 N 15 24 8 13 1010.9 1008.6 0.0
18/08:00am 14.7 12.7 12.6 87 1.2 NNE 15 26 8 14 1010.9 1008.6 0.0
18/07:30am 14.3 11.8 12.2 87 1.2 NNE 17 24 9 13 1010.8 1008.5 0.0
18/07:00am 13.8 11.6 12.0 89 1.0 NE 15 24 8 13 1010.6 1008.3 0.0
18/06:30am 13.5 12.1 12.1 91 0.8 NE 11 15 6 8 1010.5 1008.2 0.0
18/06:00am 13.3 11.8 11.9 91 0.8 NE 11 17 6 9 1010.0 1007.8 0.0
18/05:30am 13.1 11.2 11.8 92 0.7 NE 13 19 7 10 1009.8 1007.5 0.0
18/05:00am 13.1 11.2 11.8 92 0.7 NE 13 19 7 10 1010.2 1007.9 0.0
18/04:30am 12.9 10.6 11.8 93 0.6 NE 15 20 8 11 1009.9 1007.7 0.0
18/04:00am 12.8 10.1 11.7 93 0.6 NE 17 24 9 13 1009.8 1007.5 0.0
18/03:30am 12.6 9.8 11.3 92 0.7 NE 17 24 9 13 1009.7 1007.4 0.0
18/03:00am 12.5 10.2 11.6 94 0.5 NE 15 22 8 12 1010.3 1008.0 0.0
18/02:30am 12.4 9.3 11.5 94 0.5 ENE 19 26 10 14 1010.3 1008.0 0.0
18/02:00am 12.3 8.9 11.2 93 0.6 ENE 20 28 11 15 1010.5 1008.2 0.0
18/01:30am 12.2 9.0 11.3 94 0.5 ENE 19 30 10 16 1011.0 1008.7 0.0
18/01:00am 12.1 9.7 11.3 95 0.4 ENE 15 24 8 13 1011.1 1008.8 0.0
18/12:30am 12.0 8.6 11.2 95 0.4 ENE 20 30 11 16 1011.2 1008.9 0.0
18/12:00am 12.1 9.3 11.2 94 0.5 ENE 17 24 9 13 1011.7 1009.5 0.0
 
Date/Time
EDT
Temp
°C
App
Temp
°C
Dew
Point
Rel
Hum
%
Delta-T
°C
Wind Press
QNH
hPa
Press
MSL
hPa
Rain
since 9 am
mm
Dir
 
Spd
km/h
Gust
km/h
Spd
kts
Gust
kts
17/11:30pm 12.0 9.9 11.2 95 0.4 ENE 13 19 7 10 1012.0 1009.7 0.0
17/11:00pm 11.9 9.3 10.6 92 0.7 ENE 15 22 8 12 1012.3 1010.0 0.0
17/10:30pm 12.1 9.7 10.2 88 1.0 ENE 13 19 7 10 1012.3 1010.0 0.0
17/10:00pm 12.2 8.5 9.6 84 1.4 E 19 24 10 13 1012.3 1010.0 0.0
17/09:30pm 12.4 9.4 9.2 81 1.7 E 15 20 8 11 1012.0 1009.7 0.0
17/09:00pm 12.4 9.7 9.1 80 1.7 E 13 20 7 11 1011.6 1009.4 0.0
17/08:30pm 12.5 8.9 8.4 76 2.1 E 17 28 9 15 1011.2 1008.9 0.0
17/08:00pm 12.6 8.5 8.5 76 2.1 E 20 30 11 16 1011.1 1008.8 0.0
17/07:30pm 12.8 9.0 9.1 78 1.9 E 19 26 10 14 1010.6 1008.3 0.0
17/07:00pm 13.2 8.8 9.1 76 2.1 ESE 22 28 12 15 1010.2 1007.9 0.0

Other Formats:

Comma delimited format used in spreadsheet applications
http://www.bom.gov.au/fwo/IDN60801/IDN60801.94943.axf

JavaScript Object Notation format (JSON) in row-major order
http://www.bom.gov.au/fwo/IDN60801/IDN60801.94943.json